Time;durP1;ratioP1;P1;durP2;ratioP2;P2;SDS_P1;SDS_P2;PMS_P1;PMS_P2;Temp;Humidity;BMP_temperature;BMP_pressure;BME280_temperature;BME280_humidity;BME280_pressure;Samples;Min_cycle;Max_cycle;Signal;HPM_P1;HPM_P2
2022/11/14 00:00:38;;;;;;;4.88;4.40;;;;;;;;;;5055513;28;20029;-66
2022/11/14 00:03:06;;;;;;;5.50;4.80;;;;;;;;;;5055718;28;20514;-66
2022/11/14 00:05:32;;;;;;;4.78;4.38;;;;;;;;;;5055286;28;20082;-65
2022/11/14 00:07:58;;;;;;;4.93;4.43;;;;;;;;;;5055352;28;20035;-65
2022/11/14 00:10:24;;;;;;;5.40;4.50;;;;;;;;;;5055175;28;20116;-66
2022/11/14 00:12:49;;;;;;;5.32;4.38;;;;;;;;;;5055104;28;20096;-65
2022/11/14 00:15:15;;;;;;;4.97;4.47;;;;;;;;;;5052799;28;20037;-65
2022/11/14 00:17:41;;;;;;;5.30;4.80;;;;;;;;;;5052334;28;20017;-66
2022/11/14 00:20:09;;;;;;;4.85;4.43;;;;;;;;;;5051177;28;20074;-66
2022/11/14 00:22:35;;;;;;;5.30;4.53;;;;;;;;;;5053061;28;20020;-65
2022/11/14 00:25:00;;;;;;;5.28;4.60;;;;;;;;;;5054601;28;20409;-66
2022/11/14 00:27:26;;;;;;;5.50;4.50;;;;;;;;;;5055312;28;20376;-65
2022/11/14 00:29:51;;;;;;;6.10;4.38;;;;;;;;;;5054896;28;20564;-66
2022/11/14 00:32:17;;;;;;;4.72;4.22;;;;;;;;;;5054840;28;20029;-66
2022/11/14 00:34:42;;;;;;;4.93;4.28;;;;;;;;;;5055070;28;20017;-66
2022/11/14 00:37:08;;;;;;;5.07;4.53;;;;;;;;;;5054751;28;20416;-65
2022/11/14 00:39:34;;;;;;;5.50;4.85;;;;;;;;;;5053562;28;20060;-66
2022/11/14 00:41:59;;;;;;;5.15;4.65;;;;;;;;;;5051335;28;20025;-66
2022/11/14 00:44:25;;;;;;;4.70;4.15;;;;;;;;;;5052214;28;20528;-66
2022/11/14 00:46:50;;;;;;;4.80;4.30;;;;;;;;;;5051900;28;20484;-66
2022/11/14 00:49:16;;;;;;;4.78;4.32;;;;;;;;;;5052307;28;20083;-66
2022/11/14 00:51:41;;;;;;;5.13;4.63;;;;;;;;;;5054441;28;20385;-66
2022/11/14 00:54:07;;;;;;;5.35;4.85;;;;;;;;;;5054426;28;20025;-66
2022/11/14 00:56:32;;;;;;;5.18;4.55;;;;;;;;;;5054681;28;20029;-65
2022/11/14 00:58:58;;;;;;;4.70;4.28;;;;;;;;;;5054522;28;20114;-66
2022/11/14 01:01:23;;;;;;;5.63;4.72;;;;;;;;;;5054328;28;20147;-66
2022/11/14 01:03:49;;;;;;;4.88;4.35;;;;;;;;;;5054213;28;20028;-65
2022/11/14 01:06:15;;;;;;;4.90;4.35;;;;;;;;;;5054157;28;20053;-66
2022/11/14 01:08:41;;;;;;;5.10;4.60;;;;;;;;;;5054132;28;20102;-66
2022/11/14 01:11:17;;;;;;;5.00;4.47;;;;;;;;;;5054138;28;20017;-65
2022/11/14 01:13:43;;;;;;;5.05;4.53;;;;;;;;;;5054130;28;20025;-65
2022/11/14 01:16:09;;;;;;;5.40;4.90;;;;;;;;;;5051409;28;20551;-66
2022/11/14 01:18:35;;;;;;;4.45;4.05;;;;;;;;;;5050763;28;20044;-67
2022/11/14 01:21:05;;;;;;;4.45;4.05;;;;;;;;;;5049032;28;20021;-67
2022/11/14 01:23:31;;;;;;;4.38;3.97;;;;;;;;;;5048648;28;20040;-65
2022/11/14 01:26:04;;;;;;;5.72;4.20;;;;;;;;;;5049269;28;20500;-66
2022/11/14 01:28:30;;;;;;;5.00;4.53;;;;;;;;;;5051798;28;20358;-65
2022/11/14 01:30:55;;;;;;;5.45;4.57;;;;;;;;;;5053657;28;20020;-65
2022/11/14 01:33:21;;;;;;;5.47;4.47;;;;;;;;;;5053918;28;20031;-65
2022/11/14 01:35:46;;;;;;;4.68;4.28;;;;;;;;;;5053645;28;20091;-66
2022/11/14 01:38:13;;;;;;;5.35;4.78;;;;;;;;;;5052861;28;20068;-65
2022/11/14 01:40:44;;;;;;;5.03;4.53;;;;;;;;;;5053730;28;20055;-66
2022/11/14 01:43:15;;;;;;;;;;;;;;;;;;5051695;28;20025;-66
2022/11/14 01:46:04;;;;;;;5.15;4.30;;;;;;;;;;5051197;28;20360;-65
2022/11/14 01:48:44;;;;;;;5.43;4.20;;;;;;;;;;5050588;28;20067;-66
2022/11/14 01:51:17;;;;;;;4.95;4.45;;;;;;;;;;5051234;28;20109;-66
2022/11/14 01:53:44;;;;;;;5.10;4.60;;;;;;;;;;5051340;28;20547;-66
2022/11/14 01:56:13;;;;;;;4.95;4.47;;;;;;;;;;5051498;28;20033;-66
2022/11/14 01:58:42;;;;;;;5.03;4.15;;;;;;;;;;5051317;28;20111;-66
2022/11/14 02:01:08;;;;;;;5.20;4.63;;;;;;;;;;5051596;28;20024;-66
2022/11/14 02:03:38;;;;;;;5.00;4.50;;;;;;;;;;5052441;28;20037;-66
2022/11/14 02:06:05;;;;;;;5.22;4.72;;;;;;;;;;5052985;28;20098;-66
2022/11/14 02:08:32;;;;;;;4.90;4.40;;;;;;;;;;5053027;28;20079;-66
2022/11/14 02:10:58;;;;;;;5.00;4.55;;;;;;;;;;5052872;28;20048;-65
2022/11/14 02:13:23;;;;;;;5.10;4.63;;;;;;;;;;5052951;28;20063;-66
2022/11/14 02:15:49;;;;;;;4.88;4.38;;;;;;;;;;5052878;28;20103;-66
2022/11/14 02:18:14;;;;;;;4.57;4.18;;;;;;;;;;5052688;28;20033;-66
2022/11/14 02:20:43;;;;;;;6.68;5.03;;;;;;;;;;5052764;28;20075;-67
2022/11/14 02:23:10;;;;;;;5.15;4.25;;;;;;;;;;5051914;28;20025;-66
2022/11/14 02:25:38;;;;;;;5.53;4.72;;;;;;;;;;5052354;28;20508;-65
2022/11/14 02:28:06;;;;;;;5.38;4.70;;;;;;;;;;5052641;28;20033;-65
2022/11/14 02:30:32;;;;;;;4.70;4.20;;;;;;;;;;5052560;28;20527;-65
2022/11/14 02:32:57;;;;;;;4.60;4.20;;;;;;;;;;5052829;28;20050;-65
2022/11/14 02:35:23;;;;;;;5.47;4.40;;;;;;;;;;5052815;28;20029;-65
2022/11/14 02:37:48;;;;;;;6.30;4.70;;;;;;;;;;5052419;28;20040;-65
2022/11/14 02:40:14;;;;;;;4.80;4.25;;;;;;;;;;5052438;28;20052;-65
2022/11/14 02:42:39;;;;;;;5.00;4.50;;;;;;;;;;5034561;28;20056;-65
2022/11/14 02:45:06;;;;;;;5.10;4.47;;;;;;;;;;5052453;28;20106;-65
2022/11/14 02:47:31;;;;;;;4.82;4.35;;;;;;;;;;5052537;28;20469;-65
2022/11/14 02:49:57;;;;;;;5.38;4.68;;;;;;;;;;5051426;28;20053;-65
2022/11/14 02:52:22;;;;;;;4.45;4.05;;;;;;;;;;5052281;28;20025;-66
2022/11/14 02:54:47;;;;;;;5.63;4.70;;;;;;;;;;5052542;28;20025;-66
2022/11/14 02:57:13;;;;;;;4.80;4.30;;;;;;;;;;5052294;28;20107;-65
2022/11/14 02:59:38;;;;;;;4.70;4.22;;;;;;;;;;5052151;28;20029;-65
2022/11/14 03:02:04;;;;;;;4.10;3.75;;;;;;;;;;5052110;28;20040;-65
2022/11/14 03:04:29;;;;;;;4.65;4.22;;;;;;;;;;5052195;28;20029;-65
2022/11/14 03:06:55;;;;;;;4.57;4.10;;;;;;;;;;5052222;28;20028;-65
2022/11/14 03:09:20;;;;;;;4.93;4.43;;;;;;;;;;5052318;28;20079;-65
2022/11/14 03:11:46;;;;;;;5.07;4.47;;;;;;;;;;5052130;28;20057;-65
2022/11/14 03:14:12;;;;;;;4.25;3.85;;;;;;;;;;5052103;28;20029;-66
2022/11/14 03:16:37;;;;;;;4.32;3.92;;;;;;;;;;5052358;28;20021;-65
2022/11/14 03:19:03;;;;;;;5.15;4.53;;;;;;;;;;5052278;28;20385;-65
2022/11/14 03:21:28;;;;;;;5.10;4.60;;;;;;;;;;5052040;28;20587;-65
2022/11/14 03:23:54;;;;;;;4.68;4.28;;;;;;;;;;5052019;28;20025;-65
2022/11/14 03:26:19;;;;;;;4.65;4.18;;;;;;;;;;5051816;28;20451;-65
2022/11/14 03:28:45;;;;;;;4.88;4.45;;;;;;;;;;5052288;28;20040;-65
2022/11/14 03:31:12;;;;;;;4.95;4.43;;;;;;;;;;5052563;28;20028;-65
2022/11/14 03:33:38;;;;;;;4.70;4.28;;;;;;;;;;5051919;28;20465;-65
2022/11/14 03:36:05;;;;;;;4.30;3.90;;;;;;;;;;5034170;28;20044;-65
2022/11/14 03:38:32;;;;;;;4.70;4.30;;;;;;;;;;5052104;28;20025;-65
2022/11/14 03:40:58;;;;;;;4.95;4.47;;;;;;;;;;5051797;28;20494;-65
2022/11/14 03:43:29;;;;;;;4.30;3.90;;;;;;;;;;5052094;28;20028;-65
2022/11/14 03:45:57;;;;;;;4.53;4.13;;;;;;;;;;5051936;28;20021;-65
2022/11/14 03:48:22;;;;;;;4.60;4.20;;;;;;;;;;5051976;28;20021;-65
2022/11/14 03:50:48;;;;;;;4.47;4.07;;;;;;;;;;5051808;28;20507;-65
2022/11/14 03:53:13;;;;;;;4.40;4.00;;;;;;;;;;5051992;28;20029;-65
2022/11/14 03:55:39;;;;;;;4.63;4.18;;;;;;;;;;5051689;28;20104;-65
2022/11/14 03:58:04;;;;;;;4.53;4.03;;;;;;;;;;5051585;28;20035;-65
2022/11/14 04:00:30;;;;;;;6.82;4.32;;;;;;;;;;5053374;28;20071;-65
2022/11/14 04:02:56;;;;;;;5.15;4.22;;;;;;;;;;5055266;28;20025;-65
2022/11/14 04:05:23;;;;;;;4.47;4.07;;;;;;;;;;5055305;28;20021;-65
2022/11/14 04:07:48;;;;;;;5.22;4.57;;;;;;;;;;5055213;28;20297;-66
2022/11/14 04:10:14;;;;;;;4.97;4.30;;;;;;;;;;5055545;28;20107;-65
2022/11/14 04:12:40;;;;;;;4.88;4.13;;;;;;;;;;5055161;28;20033;-64
2022/11/14 04:15:06;;;;;;;4.63;4.20;;;;;;;;;;5055119;28;20040;-65
2022/11/14 04:17:31;;;;;;;4.45;3.90;;;;;;;;;;5055060;28;20021;-65
2022/11/14 04:19:57;;;;;;;5.65;4.70;;;;;;;;;;5055321;28;20111;-65
2022/11/14 04:22:22;;;;;;;5.00;4.00;;;;;;;;;;5055295;28;20385;-65
2022/11/14 04:24:48;;;;;;;5.10;4.15;;;;;;;;;;5054758;28;20033;-65
2022/11/14 04:27:13;;;;;;;4.75;4.28;;;;;;;;;;5055337;28;20040;-65
2022/11/14 04:29:39;;;;;;;5.40;4.30;;;;;;;;;;5055183;28;20061;-65
2022/11/14 04:32:04;;;;;;;5.07;4.45;;;;;;;;;;5055145;28;20451;-65
2022/11/14 04:34:30;;;;;;;4.50;3.80;;;;;;;;;;5054826;28;20033;-65
2022/11/14 04:36:55;;;;;;;4.63;4.22;;;;;;;;;;5054703;28;20071;-65
2022/11/14 04:39:21;;;;;;;5.00;4.50;;;;;;;;;;5054613;28;20078;-65
2022/11/14 04:41:46;;;;;;;4.35;3.95;;;;;;;;;;5054657;28;20104;-65
2022/11/14 04:44:12;;;;;;;4.20;3.80;;;;;;;;;;5054606;28;20466;-65
2022/11/14 04:46:37;;;;;;;4.40;3.92;;;;;;;;;;5054538;28;20075;-65
2022/11/14 04:49:03;;;;;;;4.60;4.10;;;;;;;;;;5054709;28;20083;-65
2022/11/14 04:51:28;;;;;;;4.78;4.25;;;;;;;;;;5054432;28;20064;-65
2022/11/14 04:53:54;;;;;;;4.10;3.80;;;;;;;;;;5054634;28;20029;-65
2022/11/14 04:56:22;;;;;;;5.30;4.15;;;;;;;;;;5054552;28;20036;-65
2022/11/14 04:58:48;;;;;;;4.32;3.92;;;;;;;;;;5054282;28;20377;-66
2022/11/14 05:01:14;;;;;;;5.32;4.32;;;;;;;;;;5054034;28;20025;-66
2022/11/14 05:03:39;;;;;;;4.68;4.25;;;;;;;;;;5036301;28;20036;-65
2022/11/14 05:06:05;;;;;;;4.47;4.03;;;;;;;;;;5054147;28;20077;-65
2022/11/14 05:08:31;;;;;;;4.68;4.07;;;;;;;;;;5054071;28;20107;-65
2022/11/14 05:10:56;;;;;;;4.60;4.20;;;;;;;;;;5053961;28;20064;-65
2022/11/14 05:13:22;;;;;;;4.72;4.18;;;;;;;;;;5053465;28;20108;-65
2022/11/14 05:15:47;;;;;;;4.13;3.72;;;;;;;;;;5054157;28;20476;-65
2022/11/14 05:18:13;;;;;;;4.50;4.03;;;;;;;;;;5054165;28;20025;-65
2022/11/14 05:20:38;;;;;;;4.35;3.95;;;;;;;;;;5053887;28;20067;-65
2022/11/14 05:23:04;;;;;;;4.35;3.95;;;;;;;;;;5054056;28;20079;-65
2022/11/14 05:25:30;;;;;;;4.80;4.30;;;;;;;;;;5053574;28;20084;-65
2022/11/14 05:27:55;;;;;;;4.18;3.75;;;;;;;;;;5053993;28;20039;-65
2022/11/14 05:30:21;;;;;;;4.40;4.00;;;;;;;;;;5054282;28;20397;-65
2022/11/14 05:32:46;;;;;;;4.43;4.03;;;;;;;;;;5053587;28;20021;-65
2022/11/14 05:35:12;;;;;;;4.38;3.70;;;;;;;;;;5053515;28;20120;-64
2022/11/14 05:37:38;;;;;;;4.13;3.65;;;;;;;;;;5053477;28;20033;-65
2022/11/14 05:40:04;;;;;;;5.00;4.30;;;;;;;;;;5035570;28;20033;-66
2022/11/14 05:42:30;;;;;;;3.95;3.63;;;;;;;;;;5053334;28;20447;-65
2022/11/14 05:44:55;;;;;;;4.95;4.28;;;;;;;;;;5053673;28;20184;-65
2022/11/14 05:47:21;;;;;;;4.40;4.00;;;;;;;;;;5053455;28;20025;-65
2022/11/14 05:49:46;;;;;;;4.10;3.70;;;;;;;;;;5053254;28;20090;-65
2022/11/14 05:52:12;;;;;;;5.22;4.30;;;;;;;;;;5053547;28;20028;-65
2022/11/14 05:54:37;;;;;;;4.68;4.28;;;;;;;;;;5053197;28;20475;-65
2022/11/14 05:57:03;;;;;;;4.25;3.75;;;;;;;;;;5053447;28;20509;-65
2022/11/14 05:59:29;;;;;;;5.07;3.88;;;;;;;;;;5053098;28;20040;-65
2022/11/14 06:01:55;;;;;;;4.38;3.80;;;;;;;;;;5053290;28;20366;-65
2022/11/14 06:04:20;;;;;;;4.35;3.95;;;;;;;;;;5053249;28;20025;-65
2022/11/14 06:06:46;;;;;;;4.35;3.80;;;;;;;;;;5053096;28;20056;-65
2022/11/14 06:09:11;;;;;;;4.55;4.03;;;;;;;;;;5052966;28;20036;-65
2022/11/14 06:11:37;;;;;;;4.30;3.90;;;;;;;;;;5053041;28;20031;-64
2022/11/14 06:14:03;;;;;;;4.43;3.95;;;;;;;;;;5052855;28;20025;-66
2022/11/14 06:16:28;;;;;;;4.63;4.15;;;;;;;;;;5052841;28;20099;-65
2022/11/14 06:18:54;;;;;;;4.40;4.00;;;;;;;;;;5052624;28;20032;-66
2022/11/14 06:21:22;;;;;;;5.15;4.07;;;;;;;;;;5052625;28;20037;-65
2022/11/14 06:23:48;;;;;;;4.93;4.00;;;;;;;;;;5052486;28;20028;-66
2022/11/14 06:26:22;;;;;;;4.80;4.38;;;;;;;;;;5052591;28;20299;-65
2022/11/14 06:28:49;;;;;;;4.30;3.90;;;;;;;;;;5052611;28;20021;-65
2022/11/14 06:31:15;;;;;;;4.40;4.00;;;;;;;;;;5052549;28;20473;-65
2022/11/14 06:33:41;;;;;;;5.43;4.20;;;;;;;;;;5052713;28;20033;-65
2022/11/14 06:36:07;;;;;;;4.20;3.80;;;;;;;;;;5052470;28;20368;-65
2022/11/14 06:38:34;;;;;;;4.70;4.25;;;;;;;;;;5052683;28;20099;-65
2022/11/14 06:41:07;;;;;;;4.20;3.80;;;;;;;;;;5052598;28;20365;-65
2022/11/14 06:43:34;;;;;;;4.88;4.10;;;;;;;;;;5052440;28;20025;-66
2022/11/14 06:46:01;;;;;;;4.20;3.78;;;;;;;;;;5052279;28;20025;-66
2022/11/14 06:48:27;;;;;;;3.97;3.58;;;;;;;;;;5052605;28;20075;-66
2022/11/14 06:50:53;;;;;;;3.88;3.45;;;;;;;;;;5052607;28;20511;-66
2022/11/14 06:53:19;;;;;;;4.20;3.80;;;;;;;;;;5052584;28;20508;-65
2022/11/14 06:56:00;;;;;;;4.68;3.97;;;;;;;;;;5052547;28;20040;-66
2022/11/14 06:58:33;;;;;;;4.40;4.00;;;;;;;;;;5052213;28;20291;-66
2022/11/14 07:01:07;;;;;;;4.00;3.60;;;;;;;;;;5052582;28;20033;-66
2022/11/14 07:03:33;;;;;;;4.43;3.65;;;;;;;;;;5052764;28;20077;-66
2022/11/14 07:06:03;;;;;;;4.13;3.72;;;;;;;;;;5052185;28;20106;-66
2022/11/14 07:08:29;;;;;;;3.85;3.55;;;;;;;;;;5052402;28;20060;-66
2022/11/14 07:11:03;;;;;;;4.45;3.83;;;;;;;;;;5052420;28;20380;-65
2022/11/14 07:13:30;;;;;;;3.88;3.50;;;;;;;;;;5052142;28;20112;-65
2022/11/14 07:15:55;;;;;;;4.45;3.78;;;;;;;;;;5052030;28;20029;-65
2022/11/14 07:18:21;;;;;;;4.78;4.25;;;;;;;;;;5052256;28;20033;-66
2022/11/14 07:20:47;;;;;;;3.90;3.60;;;;;;;;;;5052172;28;20036;-66
2022/11/14 07:23:13;;;;;;;4.35;3.72;;;;;;;;;;5051965;28;20017;-66
2022/11/14 07:25:39;;;;;;;4.18;3.78;;;;;;;;;;5051773;28;20091;-65
2022/11/14 07:28:04;;;;;;;4.25;3.50;;;;;;;;;;5052260;28;20024;-66
2022/11/14 07:30:30;;;;;;;3.70;3.33;;;;;;;;;;5052005;28;20090;-66
2022/11/14 07:32:56;;;;;;;4.15;3.75;;;;;;;;;;5051940;28;20025;-66
2022/11/14 07:35:22;;;;;;;4.10;3.70;;;;;;;;;;5053459;28;20029;-65
2022/11/14 07:37:49;;;;;;;3.85;3.53;;;;;;;;;;5055885;28;20040;-65
2022/11/14 07:40:16;;;;;;;4.20;3.80;;;;;;;;;;5055777;28;20040;-66
2022/11/14 07:42:42;;;;;;;4.15;3.75;;;;;;;;;;5055631;28;20038;-65
2022/11/14 07:45:08;;;;;;;4.30;3.90;;;;;;;;;;5055766;28;20024;-67
2022/11/14 07:47:33;;;;;;;3.97;3.58;;;;;;;;;;5055535;28;20477;-65
2022/11/14 07:49:59;;;;;;;3.97;3.58;;;;;;;;;;5055841;28;20044;-65
2022/11/14 07:52:25;;;;;;;3.70;3.40;;;;;;;;;;5055865;28;20035;-66
2022/11/14 07:54:50;;;;;;;4.30;3.92;;;;;;;;;;5055721;28;20357;-65
2022/11/14 07:57:16;;;;;;;4.32;3.92;;;;;;;;;;5055802;28;20082;-66
2022/11/14 07:59:41;;;;;;;4.63;3.70;;;;;;;;;;5055282;28;20388;-65
2022/11/14 08:02:14;;;;;;;4.00;3.60;;;;;;;;;;5055202;28;20037;-65
2022/11/14 08:04:42;;;;;;;4.03;3.63;;;;;;;;;;5055563;28;20048;-65
2022/11/14 08:07:08;;;;;;;4.30;3.95;;;;;;;;;;5055170;28;20428;-65
2022/11/14 08:09:34;;;;;;;3.60;3.30;;;;;;;;;;5055154;28;20028;-66
2022/11/14 08:11:59;;;;;;;4.07;3.67;;;;;;;;;;5055114;28;20373;-66
2022/11/14 08:14:25;;;;;;;3.80;3.50;;;;;;;;;;5055074;28;20560;-67
2022/11/14 08:16:51;;;;;;;4.47;3.75;;;;;;;;;;5054940;28;20385;-66
2022/11/14 08:19:16;;;;;;;4.40;3.90;;;;;;;;;;5054967;28;20065;-67
2022/11/14 08:21:43;;;;;;;3.95;3.55;;;;;;;;;;5050987;28;20036;-67
2022/11/14 08:24:08;;;;;;;3.70;3.40;;;;;;;;;;5048344;28;20530;-65
2022/11/14 08:26:34;;;;;;;4.20;3.72;;;;;;;;;;5049349;28;20057;-66
2022/11/14 08:28:59;;;;;;;4.05;3.50;;;;;;;;;;5051746;28;20032;-66
2022/11/14 08:31:25;;;;;;;4.07;3.75;;;;;;;;;;5054040;28;20021;-65
2022/11/14 08:33:52;;;;;;;4.07;3.67;;;;;;;;;;5054676;28;20033;-65
2022/11/14 08:36:17;;;;;;;3.85;3.47;;;;;;;;;;5054681;28;20033;-67
2022/11/14 08:38:43;;;;;;;4.15;3.75;;;;;;;;;;5054818;28;20021;-66
2022/11/14 08:41:09;;;;;;;3.88;3.58;;;;;;;;;;5054418;28;20500;-67
2022/11/14 08:43:34;;;;;;;4.10;3.70;;;;;;;;;;5052145;28;20147;-66
2022/11/14 08:46:03;;;;;;;4.10;3.67;;;;;;;;;;5049669;28;20453;-66
2022/11/14 08:48:29;;;;;;;4.70;3.38;;;;;;;;;;5051204;28;20784;-67
2022/11/14 08:50:55;;;;;;;4.03;3.65;;;;;;;;;;5033291;28;20029;-66
2022/11/14 08:53:20;;;;;;;4.00;3.60;;;;;;;;;;5034561;28;20019;-66
2022/11/14 08:55:47;;;;;;;3.83;3.42;;;;;;;;;;5053378;28;20036;-67
2022/11/14 08:58:13;;;;;;;4.18;3.78;;;;;;;;;;5054473;28;20021;-66
2022/11/14 09:00:38;;;;;;;4.13;3.72;;;;;;;;;;5051720;28;20025;-66
2022/11/14 09:03:08;;;;;;;3.90;3.50;;;;;;;;;;5052282;28;20021;-67
2022/11/14 09:05:34;;;;;;;3.77;3.40;;;;;;;;;;5032700;28;20109;-65
2022/11/14 09:08:00;;;;;;;3.88;3.47;;;;;;;;;;5050257;28;20408;-66
2022/11/14 09:10:26;;;;;;;4.18;3.78;;;;;;;;;;5051200;28;20029;-65
2022/11/14 09:12:55;;;;;;;3.92;3.60;;;;;;;;;;5033143;28;20024;-65
2022/11/14 09:15:21;;;;;;;4.38;3.80;;;;;;;;;;5047155;28;20029;-65
2022/11/14 09:17:47;;;;;;;4.13;3.75;;;;;;;;;;5054013;28;20561;-65
2022/11/14 09:20:13;;;;;;;4.53;3.75;;;;;;;;;;5053962;28;20025;-66
2022/11/14 09:22:38;;;;;;;4.10;3.70;;;;;;;;;;5047171;28;20024;-67
2022/11/14 09:25:04;;;;;;;4.93;3.50;;;;;;;;;;5053707;28;20511;-68
2022/11/14 09:27:30;;;;;;;4.07;3.67;;;;;;;;;;5053519;28;20111;-66
2022/11/14 09:29:55;;;;;;;3.95;3.03;;;;;;;;;;5053578;28;20033;-66
2022/11/14 09:32:21;;;;;;;3.92;3.50;;;;;;;;;;5053636;28;20025;-66
2022/11/14 09:34:46;;;;;;;3.92;3.53;;;;;;;;;;5053558;28;20037;-68
2022/11/14 09:37:12;;;;;;;3.95;3.65;;;;;;;;;;5053490;28;20021;-67
2022/11/14 09:39:39;;;;;;;4.22;3.75;;;;;;;;;;5053467;28;20025;-67
2022/11/14 09:42:14;;;;;;;3.80;3.50;;;;;;;;;;5053107;28;20071;-68
2022/11/14 09:44:55;;;;;;;4.00;3.70;;;;;;;;;;5037495;28;20115;-67
2022/11/14 09:48:03;;;;;;;4.15;3.67;;;;;;;;;;5033897;28;20469;-67
2022/11/14 09:50:36;;;;;;;4.28;3.88;;;;;;;;;;5041001;28;20052;-67
2022/11/14 09:53:25;;;;;;;3.80;3.35;;;;;;;;;;5033579;28;20029;-67
2022/11/14 09:55:51;;;;;;;4.35;3.92;;;;;;;;;;5051639;28;20025;-66
2022/11/14 09:58:19;;;;;;;4.18;3.78;;;;;;;;;;5032887;28;20025;-67
2022/11/14 10:01:04;;;;;;;3.63;3.33;;;;;;;;;;5051430;28;20441;-67
2022/11/14 10:03:52;;;;;;;3.90;3.60;;;;;;;;;;5051685;28;20372;-67
2022/11/14 10:06:37;;;;;;;4.20;3.80;;;;;;;;;;5034216;28;20021;-67
2022/11/14 10:09:02;;;;;;;3.88;3.58;;;;;;;;;;5051336;28;20021;-68
2022/11/14 10:11:35;;;;;;;4.20;3.80;;;;;;;;;;5051540;28;20613;-67
2022/11/14 10:14:31;;;;;;;3.90;3.50;;;;;;;;;;5044086;28;20035;-68
2022/11/14 10:17:21;;;;;;;3.95;3.55;;;;;;;;;;5013646;28;20033;-68
2022/11/14 10:20:14;;;;;;;3.85;3.55;;;;;;;;;;5031074;28;20044;-67
2022/11/14 10:22:46;;;;;;;4.35;3.30;;;;;;;;;;5022872;28;20120;-67
2022/11/14 10:25:27;;;;;;;4.50;4.10;;;;;;;;;;5031164;28;20128;-67
2022/11/14 10:28:12;;;;;;;3.80;3.50;;;;;;;;;;5031171;28;20544;-68
2022/11/14 10:31:00;;;;;;;3.72;3.42;;;;;;;;;;5030559;28;20514;-67
2022/11/14 10:33:35;;;;;;;4.28;3.88;;;;;;;;;;5012969;28;20448;-67
2022/11/14 10:36:28;;;;;;;3.92;3.53;;;;;;;;;;5013196;28;20083;-67
2022/11/14 10:39:03;;;;;;;3.75;3.45;;;;;;;;;;5031008;28;20041;-67
2022/11/14 10:41:29;;;;;;;4.55;3.80;;;;;;;;;;5031086;28;20389;-67
2022/11/14 10:43:55;;;;;;;4.13;3.50;;;;;;;;;;5031035;28;20029;-67
2022/11/14 10:46:24;;;;;;;4.05;3.70;;;;;;;;;;5031139;28;20021;-67
2022/11/14 10:48:50;;;;;;;4.22;3.83;;;;;;;;;;5033587;28;20461;-67
2022/11/14 10:51:34;;;;;;;4.00;3.70;;;;;;;;;;5031139;28;20032;-67
2022/11/14 10:54:06;;;;;;;4.00;3.67;;;;;;;;;;5050833;28;20087;-66
2022/11/14 10:56:32;;;;;;;4.20;3.78;;;;;;;;;;5050735;28;20108;-67
2022/11/14 10:58:57;;;;;;;4.10;3.47;;;;;;;;;;5047284;28;20476;-66
2022/11/14 11:01:40;;;;;;;3.78;3.47;;;;;;;;;;5050612;28;20033;-68
2022/11/14 11:04:36;;;;;;;3.80;3.40;;;;;;;;;;5050582;28;20403;-67
2022/11/14 11:07:07;;;;;;;5.45;3.90;;;;;;;;;;5048983;28;20048;-66
2022/11/14 11:12:35;;;;;;;4.50;4.07;;;;;;;;;;5055135;28;20040;-67
2022/11/14 11:15:30;;;;;;;3.88;3.47;;;;;;;;;;5054816;28;20363;-70
2022/11/14 11:18:01;;;;;;;4.70;3.80;;;;;;;;;;5052831;28;20079;-68
2022/11/14 11:20:36;;;;;;;3.90;3.50;;;;;;;;;;5037063;28;20033;-67
2022/11/14 11:23:15;;;;;;;4.13;3.80;;;;;;;;;;5054882;28;20097;-67
2022/11/14 11:25:40;;;;;;;3.70;3.40;;;;;;;;;;5054297;28;20071;-67
2022/11/14 11:28:09;;;;;;;3.95;3.63;;;;;;;;;;5054856;28;20029;-68
2022/11/14 11:30:34;;;;;;;4.07;3.67;;;;;;;;;;5036433;28;20120;-67
2022/11/14 11:33:13;;;;;;;3.90;3.60;;;;;;;;;;5054671;28;20429;-66
2022/11/14 11:35:42;;;;;;;4.20;3.80;;;;;;;;;;5054646;28;20037;-69
2022/11/14 11:38:10;;;;;;;5.10;3.60;;;;;;;;;;5054097;28;20021;-66
2022/11/14 11:40:38;;;;;;;4.05;3.65;;;;;;;;;;5054174;28;20028;-67
2022/11/14 11:43:12;;;;;;;4.10;3.70;;;;;;;;;;5054196;28;20033;-65
2022/11/14 11:45:40;;;;;;;3.97;3.63;;;;;;;;;;5054384;28;20029;-68
2022/11/14 11:48:21;;;;;;;4.18;3.78;;;;;;;;;;5035104;28;20048;-70
2022/11/14 11:50:48;;;;;;;3.72;3.42;;;;;;;;;;5041552;28;20056;-67
2022/11/14 11:53:23;;;;;;;4.10;3.70;;;;;;;;;;5052318;28;20029;-64
2022/11/14 11:55:53;;;;;;;5.20;3.70;;;;;;;;;;5054134;28;20468;-64
2022/11/14 11:58:28;;;;;;;;;;;;;;;;;;5046535;28;20028;-65
2022/11/14 12:00:54;;;;;;;3.90;3.50;;;;;;;;;;5047145;28;20015;-64
2022/11/14 12:03:21;;;;;;;4.28;3.60;;;;;;;;;;5038318;28;20116;-65
2022/11/14 12:06:02;;;;;;;4.25;3.85;;;;;;;;;;5034399;28;20029;-65
2022/11/14 12:09:02;;;;;;;3.80;3.50;;;;;;;;;;5053562;28;20033;-65
2022/11/14 12:11:31;;;;;;;4.40;4.00;;;;;;;;;;5045300;28;20049;-66
2022/11/14 12:13:56;;;;;;;7.57;4.35;;;;;;;;;;5033401;28;20034;-65
2022/11/14 12:16:46;;;;;;;4.30;3.88;;;;;;;;;;5033909;28;20029;-64
2022/11/14 12:19:18;;;;;;;;;;;;;;;;;;5047172;28;20079;-67
2022/11/14 12:22:21;;;;;;;3.72;3.40;;;;;;;;;;5048817;28;19921;-64
2022/11/14 12:25:01;;;;;;;3.97;3.60;;;;;;;;;;5047713;28;20497;-64
2022/11/14 12:27:41;;;;;;;4.10;3.70;;;;;;;;;;5047881;28;20396;-68
2022/11/14 12:30:17;;;;;;;4.28;3.88;;;;;;;;;;5052220;28;20033;-64
2022/11/14 12:32:51;;;;;;;4.10;3.70;;;;;;;;;;5033339;28;20037;-64
2022/11/14 12:35:22;;;;;;;4.47;3.78;;;;;;;;;;5033526;28;20105;-64
2022/11/14 12:37:50;;;;;;;4.22;3.83;;;;;;;;;;5033367;28;20163;-64
2022/11/14 12:40:47;;;;;;;4.90;3.80;;;;;;;;;;5034905;28;20037;-65
2022/11/14 12:43:35;;;;;;;3.78;3.33;;;;;;;;;;5032562;28;20033;-65
2022/11/14 12:46:11;;;;;;;4.15;3.67;;;;;;;;;;5046601;28;20020;-64
2022/11/14 12:48:38;;;;;;;4.88;3.85;;;;;;;;;;5051561;28;20021;-64
2022/11/14 12:51:26;;;;;;;4.70;3.78;;;;;;;;;;5050334;28;20036;-66
2022/11/14 12:53:53;;;;;;;3.90;3.55;;;;;;;;;;5052218;28;20028;-65
2022/11/14 12:56:21;;;;;;;4.28;3.88;;;;;;;;;;5052142;28;20096;-65
2022/11/14 12:59:12;;;;;;;4.20;3.80;;;;;;;;;;5052271;28;20048;-66
2022/11/14 13:01:52;;;;;;;5.40;4.20;;;;;;;;;;5052753;28;20032;-66
2022/11/14 13:04:37;;;;;;;5.55;4.50;;;;;;;;;;5051375;28;20029;-65
2022/11/14 13:07:03;;;;;;;4.32;3.92;;;;;;;;;;5035367;28;20528;-65
2022/11/14 13:09:32;;;;;;;4.65;3.97;;;;;;;;;;5052479;28;20159;-65
2022/11/14 13:24:07;;;;;;;4.28;3.88;;;;;;;;;;5052418;28;20099;-65
2022/11/14 13:26:32;;;;;;;3.78;3.47;;;;;;;;;;5033862;28;20107;-66
2022/11/14 13:28:58;;;;;;;5.28;4.10;;;;;;;;;;5051825;28;20021;-67
2022/11/14 13:31:42;;;;;;;4.95;4.13;;;;;;;;;;5051549;28;20037;-66
2022/11/14 13:34:45;;;;;;;4.50;4.10;;;;;;;;;;5050998;28;20037;-66
2022/11/14 13:37:13;;;;;;;4.53;4.07;;;;;;;;;;5051953;28;20029;-65
2022/11/14 13:39:56;;;;;;;4.28;3.67;;;;;;;;;;5051799;28;20476;-65
2022/11/14 13:42:42;;;;;;;4.80;4.40;;;;;;;;;;5052306;28;20052;-66
2022/11/14 13:45:45;;;;;;;4.40;4.00;;;;;;;;;;5051850;28;20025;-65
2022/11/14 13:48:32;;;;;;;4.00;3.60;;;;;;;;;;5018830;28;20024;-65
2022/11/14 13:51:04;;;;;;;4.40;4.00;;;;;;;;;;5051754;28;20040;-66
2022/11/14 13:53:30;;;;;;;4.07;3.67;;;;;;;;;;5051346;28;20083;-65
2022/11/14 13:56:03;;;;;;;4.35;3.95;;;;;;;;;;5051803;28;20029;-65
2022/11/14 13:58:37;;;;;;;4.28;3.88;;;;;;;;;;5051552;28;20090;-65
2022/11/14 14:01:28;;;;;;;4.35;3.90;;;;;;;;;;5051565;28;20036;-66
2022/11/14 14:03:53;;;;;;;;;;;;;;;;;;5052034;28;20473;-64
2022/11/14 14:06:51;;;;;;;5.07;3.90;;;;;;;;;;5051709;28;19928;-65
2022/11/14 14:09:41;;;;;;;5.18;3.80;;;;;;;;;;4965025;28;20052;-65
2022/11/14 14:12:14;;;;;;;4.57;3.95;;;;;;;;;;5010076;28;20044;-65
2022/11/14 14:14:52;;;;;;;4.95;4.45;;;;;;;;;;5033839;28;20036;-64
2022/11/14 14:17:48;;;;;;;4.05;3.70;;;;;;;;;;5051611;28;20025;-65
2022/11/14 14:20:35;;;;;;;5.05;4.30;;;;;;;;;;5051329;28;20477;-65
2022/11/14 14:23:19;;;;;;;5.45;4.05;;;;;;;;;;5033234;28;20035;-65
2022/11/14 14:26:36;;;;;;;4.70;4.30;;;;;;;;;;5051345;28;20401;-65
2022/11/14 14:29:23;;;;;;;5.90;4.30;;;;;;;;;;4995936;28;20037;-64
2022/11/14 14:31:49;;;;;;;4.43;4.00;;;;;;;;;;5051193;28;20032;-65
2022/11/14 14:34:25;;;;;;;4.43;3.95;;;;;;;;;;5050761;28;20044;-64
2022/11/14 14:36:54;;;;;;;4.30;3.90;;;;;;;;;;5051201;28;20033;-64
2022/11/14 14:39:24;;;;;;;4.55;4.15;;;;;;;;;;5044051;28;20033;-64
2022/11/14 14:41:50;;;;;;;4.60;4.20;;;;;;;;;;5032139;28;20032;-68
2022/11/14 14:44:36;;;;;;;4.63;4.20;;;;;;;;;;5035505;28;20029;-68
2022/11/14 14:47:27;;;;;;;4.35;3.88;;;;;;;;;;5013378;28;20037;-66
2022/11/14 14:49:53;;;;;;;4.57;3.90;;;;;;;;;;5013087;28;20377;-66
2022/11/14 14:52:30;;;;;;;4.78;4.25;;;;;;;;;;5013532;28;20025;-65
2022/11/14 14:54:57;;;;;;;4.90;4.40;;;;;;;;;;5030714;28;20029;-66
2022/11/14 14:57:29;;;;;;;4.68;4.28;;;;;;;;;;5030789;28;20034;-67
2022/11/14 15:00:07;;;;;;;4.80;4.40;;;;;;;;;;5030971;28;20112;-66
2022/11/14 15:02:33;;;;;;;4.53;4.13;;;;;;;;;;5012874;28;20076;-67
2022/11/14 15:05:00;;;;;;;5.00;4.50;;;;;;;;;;4996750;28;20028;-66
2022/11/14 15:07:28;;;;;;;4.90;4.40;;;;;;;;;;5030553;28;20370;-66
2022/11/14 15:09:57;;;;;;;4.97;4.47;;;;;;;;;;5049358;28;20086;-65
2022/11/14 15:12:24;;;;;;;4.57;4.00;;;;;;;;;;5032443;28;20056;-66
2022/11/14 15:14:53;;;;;;;4.72;4.30;;;;;;;;;;5016300;28;20029;-66